createdAt,value
2022-07-25T00:02:08.833Z,60.90
2022-07-25T00:04:36.969Z,61.00
2022-07-25T00:07:04.917Z,60.90
2022-07-25T00:09:32.775Z,60.80
2022-07-25T00:12:00.704Z,60.70
2022-07-25T00:14:28.638Z,60.60
2022-07-25T00:16:57.846Z,60.50
2022-07-25T00:19:25.631Z,60.40
2022-07-25T00:21:53.693Z,60.30
2022-07-25T00:24:21.529Z,60.20
2022-07-25T00:26:49.349Z,60.10
2022-07-25T00:29:17.168Z,60.10
2022-07-25T00:31:45.251Z,59.90
2022-07-25T00:34:14.495Z,59.90
2022-07-25T00:36:42.391Z,59.80
2022-07-25T00:39:10.230Z,59.80
2022-07-25T00:41:38.208Z,59.80
2022-07-25T00:44:07.327Z,59.80
2022-07-25T00:46:38.812Z,59.80
2022-07-25T00:49:06.848Z,59.80
2022-07-25T00:51:36.018Z,59.80
2022-07-25T00:54:04.192Z,59.70
2022-07-25T00:56:32.666Z,59.70
2022-07-25T00:59:00.456Z,59.70
2022-07-25T01:01:28.536Z,59.70
2022-07-25T01:03:56.600Z,59.70
2022-07-25T01:06:27.423Z,59.70
2022-07-25T01:08:56.926Z,59.70
2022-07-25T01:11:24.770Z,59.60
2022-07-25T01:13:53.195Z,59.60
2022-07-25T01:16:21.065Z,59.60
2022-07-25T01:18:48.988Z,59.60
2022-07-25T01:21:20.388Z,59.60
2022-07-25T01:23:48.368Z,59.70
2022-07-25T01:26:16.216Z,59.70
2022-07-25T01:28:44.011Z,59.70
2022-07-25T01:31:12.026Z,59.70
2022-07-25T01:33:39.934Z,59.70
2022-07-25T01:36:08.213Z,59.70
2022-07-25T01:38:37.337Z,59.70
2022-07-25T01:41:05.171Z,59.70
2022-07-25T01:43:33.043Z,59.70
2022-07-25T01:46:01.054Z,59.90
2022-07-25T01:48:29.120Z,59.70
2022-07-25T01:50:57.046Z,59.70
2022-07-25T01:53:25.089Z,59.70
2022-07-25T01:55:55.416Z,59.70
2022-07-25T01:58:25.427Z,59.70
2022-07-25T02:00:53.533Z,59.60
2022-07-25T02:03:33.251Z,59.70
2022-07-25T02:06:03.400Z,59.70
2022-07-25T02:08:31.720Z,59.60
2022-07-25T02:11:01.498Z,59.50
2022-07-25T02:13:29.342Z,59.50
2022-07-25T02:15:57.311Z,59.50
2022-07-25T02:18:25.209Z,59.40
2022-07-25T02:20:53.132Z,59.50
2022-07-25T02:23:20.934Z,59.50
2022-07-25T02:25:49.041Z,59.40
2022-07-25T02:28:18.200Z,59.40
2022-07-25T02:30:46.038Z,59.40
2022-07-25T02:33:13.857Z,59.40
2022-07-25T02:35:41.639Z,59.40
2022-07-25T02:38:09.500Z,59.30
2022-07-25T02:40:37.814Z,59.40
2022-07-25T02:43:05.691Z,59.40
2022-07-25T02:45:35.077Z,59.40
2022-07-25T02:48:03.309Z,59.40
2022-07-25T02:50:31.233Z,59.40
2022-07-25T02:52:59.382Z,59.30
2022-07-25T02:55:27.425Z,59.30
2022-07-25T02:57:55.326Z,59.20
2022-07-25T03:00:23.504Z,59.30
2022-07-25T03:02:52.610Z,59.30
2022-07-25T03:05:20.529Z,59.30
2022-07-25T03:07:48.325Z,59.30
2022-07-25T03:10:16.328Z,59.30
2022-07-25T03:12:45.194Z,59.40
2022-07-25T03:15:15.378Z,59.40
2022-07-25T03:17:43.394Z,59.40
2022-07-25T03:20:13.951Z,59.40
2022-07-25T03:22:42.785Z,59.40
2022-07-25T03:25:15.849Z,59.30
2022-07-25T03:27:49.375Z,59.50
2022-07-25T03:30:17.387Z,59.50
2022-07-25T03:32:45.200Z,59.40
2022-07-25T03:35:15.437Z,59.50
2022-07-25T03:37:43.623Z,59.40
2022-07-25T03:40:12.632Z,59.40
2022-07-25T03:42:41.484Z,59.40
2022-07-25T03:45:10.653Z,59.30
2022-07-25T03:47:38.426Z,59.30
2022-07-25T03:50:07.056Z,59.30
2022-07-25T03:52:38.305Z,59.30
2022-07-25T03:55:07.268Z,59.30
2022-07-25T03:57:35.300Z,59.30
2022-07-25T04:00:03.682Z,59.20
2022-07-25T04:02:31.540Z,59.20
2022-07-25T04:04:59.560Z,59.20
2022-07-25T04:07:27.666Z,59.20
2022-07-25T04:09:56.941Z,59.20
2022-07-25T04:12:24.795Z,59.20
2022-07-25T04:14:52.606Z,59.10
2022-07-25T04:17:20.556Z,59.10
2022-07-25T04:19:49.765Z,59.10
2022-07-25T04:22:17.573Z,59.20
2022-07-25T04:24:45.333Z,59.10
2022-07-25T04:27:14.631Z,59.00
2022-07-25T04:29:42.506Z,59.10
2022-07-25T04:32:10.335Z,59.00
2022-07-25T04:34:38.217Z,59.50
2022-07-25T04:37:06.319Z,58.90
2022-07-25T04:39:34.081Z,58.80
2022-07-25T04:42:01.912Z,58.80
2022-07-25T04:44:31.192Z,58.90
2022-07-25T04:46:59.005Z,59.00
2022-07-25T04:49:26.855Z,59.10
2022-07-25T04:51:54.786Z,58.90
2022-07-25T04:54:22.732Z,59.00
2022-07-25T04:56:50.521Z,59.00
2022-07-25T04:59:18.343Z,58.90
2022-07-25T05:01:47.638Z,58.90
2022-07-25T05:04:15.411Z,58.80
2022-07-25T05:06:43.215Z,58.70
2022-07-25T05:09:10.986Z,58.70
2022-07-25T05:11:42.499Z,58.70
2022-07-25T05:14:13.035Z,58.70
2022-07-25T05:16:41.162Z,58.80
2022-07-25T05:19:10.397Z,58.80
2022-07-25T05:21:39.411Z,58.90
2022-07-25T05:24:08.269Z,58.90
2022-07-25T05:26:36.529Z,58.90
2022-07-25T05:29:04.495Z,58.90
2022-07-25T05:31:32.400Z,58.90
2022-07-25T05:34:00.337Z,58.80
2022-07-25T05:36:29.544Z,58.70
2022-07-25T05:38:57.364Z,58.80
2022-07-25T05:41:25.172Z,58.90
2022-07-25T05:43:53.159Z,59.10
2022-07-25T05:46:21.027Z,59.10
2022-07-25T05:48:48.820Z,59.00
2022-07-25T05:51:16.617Z,58.90
2022-07-25T05:53:45.858Z,58.90
2022-07-25T05:56:13.713Z,58.70
2022-07-25T05:58:42.268Z,58.70
2022-07-25T06:01:13.075Z,58.60
2022-07-25T06:03:40.892Z,58.50
2022-07-25T06:06:09.400Z,58.50
2022-07-25T06:08:37.735Z,58.40
2022-07-25T06:11:08.486Z,58.40
2022-07-25T06:13:37.409Z,58.50
2022-07-25T06:16:06.011Z,58.60
2022-07-25T06:18:33.856Z,58.60
2022-07-25T06:21:01.641Z,58.50
2022-07-25T06:23:29.493Z,58.50
2022-07-25T06:25:57.353Z,58.60
2022-07-25T06:28:26.790Z,58.50
2022-07-25T06:30:54.832Z,58.60
2022-07-25T06:33:22.682Z,58.60
2022-07-25T06:35:50.515Z,58.60
2022-07-25T06:38:18.362Z,58.50
2022-07-25T06:40:46.499Z,58.50
2022-07-25T06:43:14.303Z,58.40
2022-07-25T06:45:47.327Z,58.40
2022-07-25T06:48:15.326Z,58.30
2022-07-25T06:50:43.295Z,58.30
2022-07-25T06:53:11.085Z,58.30
2022-07-25T06:55:38.953Z,58.30
2022-07-25T06:58:06.831Z,58.30
2022-07-25T07:00:34.872Z,58.20
2022-07-25T07:03:04.720Z,58.20
2022-07-25T07:05:34.661Z,58.20
2022-07-25T07:08:02.638Z,58.20
2022-07-25T07:10:30.797Z,58.20
2022-07-25T07:13:07.711Z,58.30
2022-07-25T07:15:36.250Z,58.40
2022-07-25T07:18:06.490Z,58.40
2022-07-25T07:20:34.550Z,58.40
2022-07-25T07:23:02.505Z,58.30
2022-07-25T07:25:30.733Z,58.30
2022-07-25T07:27:59.102Z,58.30
2022-07-25T07:30:52.099Z,58.10
2022-07-25T07:33:16.815Z,58.10
2022-07-25T07:35:45.300Z,58.00
2022-07-25T07:38:13.237Z,58.00
2022-07-25T07:40:41.093Z,57.90
2022-07-25T07:43:08.963Z,57.90
2022-07-25T07:45:36.820Z,57.90
2022-07-25T07:48:06.814Z,57.80
2022-07-25T07:50:36.491Z,57.70
2022-07-25T07:53:05.169Z,57.50
2022-07-25T07:55:44.062Z,57.50
2022-07-25T07:58:12.938Z,57.50
2022-07-25T08:00:41.176Z,57.50
2022-07-25T08:03:10.136Z,57.60
2022-07-25T08:05:41.422Z,57.60
2022-07-25T08:08:11.660Z,57.50
2022-07-25T08:10:41.656Z,57.40
2022-07-25T08:13:16.786Z,57.40
2022-07-25T08:15:46.309Z,57.40
2022-07-25T08:18:17.496Z,57.40
2022-07-25T08:20:47.669Z,57.30
2022-07-25T08:23:15.768Z,57.30
2022-07-25T08:25:43.866Z,57.30
2022-07-25T08:28:12.126Z,57.30
2022-07-25T08:30:41.268Z,57.30
2022-07-25T08:33:10.845Z,57.30
2022-07-25T08:35:40.032Z,57.30
2022-07-25T08:38:11.421Z,57.30
2022-07-25T08:40:39.495Z,57.20
2022-07-25T08:43:07.486Z,57.30
2022-07-25T08:45:35.384Z,57.20
2022-07-25T08:48:03.250Z,57.20
2022-07-25T08:50:31.208Z,57.00
2022-07-25T08:53:30.267Z,56.90
2022-07-25T08:55:48.693Z,56.80
2022-07-25T08:58:18.722Z,56.60
2022-07-25T09:00:47.127Z,56.60
2022-07-25T09:03:15.097Z,56.50
2022-07-25T09:05:43.927Z,56.40
2022-07-25T09:08:13.177Z,56.30
2022-07-25T09:10:45.866Z,56.20
2022-07-25T09:13:15.654Z,56.20
2022-07-25T09:15:46.758Z,56.40
2022-07-25T09:18:17.194Z,56.60
2022-07-25T09:20:46.507Z,56.70
2022-07-25T09:23:16.059Z,56.70
2022-07-25T09:25:44.232Z,56.70
2022-07-25T09:28:15.579Z,56.70
2022-07-25T09:30:55.326Z,57.20
2022-07-25T09:33:24.006Z,56.60
2022-07-25T09:35:52.204Z,56.50
2022-07-25T09:38:21.019Z,56.40
2022-07-25T09:40:56.768Z,56.50
2022-07-25T09:43:37.379Z,56.30
2022-07-25T09:46:05.618Z,56.10
2022-07-25T09:48:33.849Z,56.00
2022-07-25T09:51:02.217Z,56.00
2022-07-25T09:53:30.722Z,55.90
2022-07-25T09:55:58.714Z,55.90
2022-07-25T09:58:29.152Z,55.70
2022-07-25T10:01:06.593Z,55.80
2022-07-25T10:03:46.117Z,55.80
2022-07-25T10:06:21.780Z,55.90
2022-07-25T10:08:50.652Z,55.90
2022-07-25T10:11:23.035Z,55.90
2022-07-25T10:13:53.794Z,55.90
2022-07-25T10:16:23.656Z,56.00
2022-07-25T10:18:53.863Z,56.00
2022-07-25T10:21:28.017Z,55.90
2022-07-25T10:24:02.424Z,55.90
2022-07-25T10:26:30.640Z,55.80
2022-07-25T10:29:01.617Z,55.80
2022-07-25T10:31:36.249Z,55.80
2022-07-25T10:34:06.554Z,55.80
2022-07-25T10:36:45.816Z,55.80
2022-07-25T10:39:14.632Z,55.80
2022-07-25T10:41:44.352Z,55.90
2022-07-25T10:44:15.880Z,56.00
2022-07-25T10:46:45.047Z,56.00
2022-07-25T10:49:19.557Z,56.00
2022-07-25T10:51:57.424Z,56.00
2022-07-25T10:54:25.242Z,55.90
2022-07-25T10:56:55.742Z,55.80
2022-07-25T10:59:34.149Z,55.70
2022-07-25T11:02:03.133Z,55.80
2022-07-25T11:04:31.608Z,55.90
2022-07-25T11:06:59.392Z,56.00
2022-07-25T11:09:29.212Z,56.00
2022-07-25T11:11:59.098Z,56.10
2022-07-25T11:14:33.398Z,56.10
2022-07-25T11:17:13.405Z,56.10
2022-07-25T11:19:41.916Z,56.10
2022-07-25T11:22:10.553Z,56.10
2022-07-25T11:24:40.360Z,56.10
2022-07-25T11:27:12.660Z,56.00
2022-07-25T11:29:42.575Z,55.90
2022-07-25T11:32:12.063Z,55.80
2022-07-25T11:34:42.960Z,55.80
2022-07-25T11:37:12.914Z,55.60
2022-07-25T11:39:44.509Z,55.50
2022-07-25T11:42:16.133Z,55.20
2022-07-25T11:44:48.922Z,55.00
2022-07-25T11:47:25.143Z,54.80
2022-07-25T11:49:55.473Z,54.60
2022-07-25T11:52:25.236Z,54.30
2022-07-25T11:54:54.349Z,54.10
2022-07-25T11:57:23.845Z,53.90
2022-07-25T11:59:53.409Z,53.90
2022-07-25T12:02:25.501Z,53.70
2022-07-25T12:04:57.928Z,53.70
2022-07-25T12:07:40.535Z,53.80
2022-07-25T12:10:10.951Z,53.80
2022-07-25T12:12:50.926Z,53.80
2022-07-25T12:15:22.089Z,53.60
2022-07-25T12:17:50.703Z,53.40
2022-07-25T12:20:20.337Z,53.30
2022-07-25T12:22:49.052Z,53.30
2022-07-25T12:25:17.147Z,53.50
2022-07-25T12:27:45.775Z,53.70
2022-07-25T12:30:15.563Z,53.90
2022-07-25T12:32:46.035Z,53.90
2022-07-25T12:35:15.397Z,53.90
2022-07-25T12:37:44.463Z,53.90
2022-07-25T12:40:14.305Z,53.70
2022-07-25T12:42:42.702Z,53.60
2022-07-25T12:45:15.252Z,53.60
2022-07-25T12:47:46.532Z,53.80
2022-07-25T12:50:14.812Z,53.80
2022-07-25T12:52:43.534Z,53.90
2022-07-25T12:55:14.187Z,54.50
2022-07-25T12:57:42.539Z,54.10
2022-07-25T13:00:13.537Z,54.10
2022-07-25T13:02:41.471Z,54.30
2022-07-25T13:05:13.624Z,54.40
2022-07-25T13:07:41.440Z,54.50
2022-07-25T13:10:10.202Z,54.50
2022-07-25T13:12:38.038Z,54.50
2022-07-25T13:15:06.888Z,54.60
2022-07-25T13:17:35.218Z,54.40
2022-07-25T13:20:03.024Z,54.30
2022-07-25T13:22:32.386Z,54.30
2022-07-25T13:25:00.304Z,54.20
2022-07-25T13:27:28.140Z,54.10
2022-07-25T13:29:56.152Z,54.10
2022-07-25T13:32:26.412Z,54.20
2022-07-25T13:34:54.212Z,54.30
2022-07-25T13:37:21.998Z,54.40
2022-07-25T13:39:51.333Z,54.30
2022-07-25T13:42:19.187Z,54.20
2022-07-25T13:44:46.998Z,54.20
2022-07-25T13:47:14.880Z,54.10
2022-07-25T13:49:42.816Z,54.00
2022-07-25T13:52:10.706Z,54.10
2022-07-25T13:54:38.753Z,54.10
2022-07-25T13:57:09.341Z,54.00
2022-07-25T13:59:37.179Z,54.00
2022-07-25T14:02:05.110Z,54.00
2022-07-25T14:04:33.046Z,54.10
2022-07-25T14:07:01.960Z,54.10
2022-07-25T14:09:29.810Z,54.10
2022-07-25T14:11:57.573Z,54.10
2022-07-25T14:14:26.656Z,54.20
2022-07-25T14:16:54.572Z,54.30
2022-07-25T14:19:26.487Z,54.30
2022-07-25T14:21:54.295Z,54.30
2022-07-25T14:24:22.070Z,54.30
2022-07-25T14:26:50.185Z,54.20
2022-07-25T14:29:18.230Z,54.20
2022-07-25T14:31:47.829Z,54.30
2022-07-25T14:34:16.718Z,54.60
2022-07-25T14:36:47.395Z,55.00
2022-07-25T14:39:16.183Z,55.10
2022-07-25T14:41:44.215Z,55.40
2022-07-25T14:44:13.260Z,55.70
2022-07-25T14:46:43.014Z,55.90
2022-07-25T14:49:14.953Z,55.90
2022-07-25T14:51:45.256Z,55.90
2022-07-25T14:54:13.932Z,56.20
2022-07-25T14:56:42.956Z,56.30
2022-07-25T14:59:11.028Z,56.50
2022-07-25T15:01:39.761Z,56.70
2022-07-25T15:04:07.990Z,56.80
2022-07-25T15:06:37.369Z,56.90
2022-07-25T15:09:05.802Z,57.00
2022-07-25T15:11:34.012Z,57.20
2022-07-25T15:14:01.775Z,57.20
2022-07-25T15:16:29.803Z,57.30
2022-07-25T15:19:15.908Z,57.50
2022-07-25T15:21:46.408Z,57.30
2022-07-25T15:24:14.344Z,57.30
2022-07-25T15:26:42.400Z,57.50
2022-07-25T15:29:13.409Z,57.70
2022-07-25T15:31:41.220Z,57.90
2022-07-25T15:34:09.066Z,57.80
2022-07-25T15:36:36.878Z,57.80
2022-07-25T15:39:06.487Z,57.90
2022-07-25T15:41:34.720Z,58.20
2022-07-25T15:44:02.557Z,58.50
2022-07-25T15:46:30.442Z,58.60
2022-07-25T15:48:58.725Z,59.10
2022-07-25T15:51:26.714Z,59.40
2022-07-25T15:53:54.544Z,59.70
2022-07-25T15:56:24.002Z,59.90
2022-07-25T15:58:52.088Z,60.10
2022-07-25T16:01:20.290Z,60.10
2022-07-25T16:03:48.261Z,60.10
2022-07-25T16:06:20.529Z,60.10
2022-07-25T16:08:50.045Z,60.00
2022-07-25T16:11:17.908Z,60.00
2022-07-25T16:13:47.106Z,59.90
2022-07-25T16:16:14.941Z,59.80
2022-07-25T16:18:42.872Z,59.90
2022-07-25T16:21:10.662Z,59.90
2022-07-25T16:23:42.542Z,59.90
2022-07-25T16:26:13.230Z,59.90
2022-07-25T16:28:41.748Z,59.70
2022-07-25T16:31:10.947Z,59.50
2022-07-25T16:33:39.025Z,59.40
2022-07-25T16:36:07.442Z,59.40
2022-07-25T16:38:35.394Z,59.30
2022-07-25T16:41:03.185Z,59.40
2022-07-25T16:43:30.943Z,59.50
2022-07-25T16:45:58.759Z,59.50
2022-07-25T16:48:27.919Z,59.30
2022-07-25T16:50:55.759Z,59.40
2022-07-25T16:53:23.567Z,59.30
2022-07-25T16:55:51.440Z,59.20
2022-07-25T16:58:19.446Z,59.20
2022-07-25T17:00:47.243Z,59.10
2022-07-25T17:03:16.226Z,59.10
2022-07-25T17:05:46.923Z,59.10
2022-07-25T17:08:14.878Z,59.10
2022-07-25T17:10:42.673Z,59.20
2022-07-25T17:13:10.489Z,59.20
2022-07-25T17:15:38.853Z,59.20
2022-07-25T17:18:06.954Z,59.30
2022-07-25T17:20:34.768Z,59.40
2022-07-25T17:23:05.045Z,59.40
2022-07-25T17:25:33.118Z,59.60
2022-07-25T17:28:01.373Z,59.70
2022-07-25T17:30:29.206Z,59.70
2022-07-25T17:32:56.960Z,59.70
2022-07-25T17:35:24.784Z,59.70
2022-07-25T17:37:52.936Z,59.70
2022-07-25T17:40:22.188Z,59.70
2022-07-25T17:42:50.004Z,59.80
2022-07-25T17:45:17.947Z,59.80
2022-07-25T17:47:46.061Z,59.80
2022-07-25T17:50:14.346Z,59.80
2022-07-25T17:52:42.249Z,59.80
2022-07-25T17:55:11.932Z,59.90
2022-07-25T17:57:43.453Z,60.00
2022-07-25T18:00:14.191Z,60.00
2022-07-25T18:02:43.167Z,60.10
2022-07-25T18:05:11.384Z,60.40
2022-07-25T18:07:45.107Z,60.20
2022-07-25T18:10:14.150Z,60.40
2022-07-25T18:12:43.503Z,60.40
2022-07-25T18:15:14.342Z,60.40
2022-07-25T18:17:43.166Z,60.60
2022-07-25T18:20:12.392Z,60.60
2022-07-25T18:22:41.139Z,60.70
2022-07-25T18:25:11.455Z,60.80
2022-07-25T18:27:41.158Z,60.80
2022-07-25T18:30:14.475Z,61.00
2022-07-25T18:32:42.993Z,61.10
2022-07-25T18:35:12.284Z,61.00
2022-07-25T18:37:40.452Z,61.00
2022-07-25T18:40:09.495Z,61.00
2022-07-25T18:42:40.339Z,61.00
2022-07-25T18:45:11.055Z,60.80
2022-07-25T18:47:41.001Z,60.80
2022-07-25T18:50:09.964Z,60.90
2022-07-25T18:52:37.851Z,60.80
2022-07-25T18:55:08.777Z,60.90
2022-07-25T18:57:36.637Z,60.80
2022-07-25T19:00:05.647Z,60.90
2022-07-25T19:02:35.566Z,60.90
2022-07-25T19:05:03.458Z,60.80
2022-07-25T19:07:31.427Z,60.90
2022-07-25T19:09:59.695Z,60.80
2022-07-25T19:12:27.593Z,60.90
2022-07-25T19:14:56.364Z,61.00
2022-07-25T19:17:24.678Z,61.10
2022-07-25T19:19:54.149Z,61.00
2022-07-25T19:22:22.443Z,61.10
2022-07-25T19:24:50.218Z,61.00
2022-07-25T19:27:18.160Z,61.10
2022-07-25T19:29:46.180Z,61.20
2022-07-25T19:32:13.981Z,61.20
2022-07-25T19:34:46.064Z,61.20
2022-07-25T19:37:15.234Z,61.30
2022-07-25T19:39:43.368Z,61.20
2022-07-25T19:42:12.186Z,61.30
2022-07-25T19:44:40.281Z,61.30
2022-07-25T19:47:11.640Z,61.30
2022-07-25T19:49:40.589Z,61.40
2022-07-25T19:52:08.485Z,61.50
2022-07-25T19:54:37.898Z,61.60
2022-07-25T19:57:06.006Z,61.50
2022-07-25T19:59:33.936Z,61.50
2022-07-25T20:02:02.128Z,61.60
2022-07-25T20:04:30.061Z,61.50
2022-07-25T20:06:59.471Z,61.40
2022-07-25T20:09:27.320Z,61.50
2022-07-25T20:11:57.088Z,61.50
2022-07-25T20:14:25.270Z,61.50
2022-07-25T20:16:53.199Z,61.60
2022-07-25T20:19:21.304Z,61.60
2022-07-25T20:21:49.646Z,61.60
2022-07-25T20:24:21.326Z,61.60
2022-07-25T20:26:49.693Z,61.70
2022-07-25T20:29:18.966Z,61.80
2022-07-25T20:31:46.789Z,61.80
2022-07-25T20:34:15.276Z,62.10
2022-07-25T20:36:43.709Z,62.20
2022-07-25T20:39:11.734Z,62.20
2022-07-25T20:41:41.062Z,62.30
2022-07-25T20:44:09.211Z,62.30
2022-07-25T20:46:39.095Z,62.40
2022-07-25T20:49:09.300Z,62.40
2022-07-25T20:51:39.721Z,62.40
2022-07-25T20:54:07.999Z,62.20
2022-07-25T20:56:35.911Z,62.00
2022-07-25T20:59:04.150Z,62.10
2022-07-25T21:01:32.471Z,62.00
2022-07-25T21:04:07.035Z,62.20
2022-07-25T21:06:35.395Z,62.10
2022-07-25T21:09:05.684Z,62.10
2022-07-25T21:11:33.939Z,62.00
2022-07-25T21:14:03.071Z,61.90
2022-07-25T21:16:31.135Z,62.10
2022-07-25T21:18:59.085Z,62.20
2022-07-25T21:21:28.280Z,62.10
2022-07-25T21:23:56.114Z,62.10
2022-07-25T21:26:24.016Z,62.00
2022-07-25T21:28:51.821Z,61.90
2022-07-25T21:31:20.069Z,61.90
2022-07-25T21:33:47.961Z,61.90
2022-07-25T21:36:15.886Z,61.80
2022-07-25T21:38:45.044Z,61.80
2022-07-25T21:41:13.195Z,61.80
2022-07-25T21:43:41.251Z,61.60
2022-07-25T21:46:09.134Z,61.80
2022-07-25T21:48:54.973Z,61.70
2022-07-25T21:51:23.511Z,61.90
2022-07-25T21:53:54.059Z,62.10
2022-07-25T21:56:22.227Z,62.10
2022-07-25T21:58:50.297Z,62.00
2022-07-25T22:01:20.353Z,62.00
2022-07-25T22:03:48.732Z,62.30
2022-07-25T22:06:16.579Z,62.40
2022-07-25T22:08:44.364Z,62.50
2022-07-25T22:11:15.828Z,63.30
2022-07-25T22:14:01.630Z,62.70
2022-07-25T22:16:29.516Z,62.60
2022-07-25T22:18:57.372Z,62.70
2022-07-25T22:21:25.367Z,62.70
2022-07-25T22:23:53.243Z,62.80
2022-07-25T22:26:22.474Z,62.70
2022-07-25T22:28:50.664Z,62.80
2022-07-25T22:31:18.780Z,62.80
2022-07-25T22:33:46.681Z,62.90
2022-07-25T22:36:14.521Z,62.80
2022-07-25T22:38:43.840Z,62.90
2022-07-25T22:41:12.477Z,62.90
2022-07-25T22:43:58.007Z,62.90
2022-07-25T22:46:27.785Z,63.00
2022-07-25T22:48:55.741Z,62.90
2022-07-25T22:51:23.653Z,62.90
2022-07-25T22:53:51.586Z,62.90
2022-07-25T22:56:19.958Z,62.90
2022-07-25T22:58:49.499Z,63.00
2022-07-25T23:01:18.747Z,62.90
2022-07-25T23:03:46.595Z,62.90
2022-07-25T23:06:14.626Z,62.90
2022-07-25T23:08:42.595Z,62.90
2022-07-25T23:11:10.591Z,62.90
2022-07-25T23:13:38.458Z,63.00
2022-07-25T23:16:10.396Z,62.80
2022-07-25T23:18:38.643Z,62.80
2022-07-25T23:21:06.658Z,62.70
2022-07-25T23:23:34.990Z,62.80
2022-07-25T23:26:03.075Z,62.70
2022-07-25T23:28:30.891Z,62.80
2022-07-25T23:30:58.678Z,62.80
2022-07-25T23:33:28.393Z,62.90
2022-07-25T23:35:57.059Z,62.90
2022-07-25T23:38:24.865Z,62.80
2022-07-25T23:40:54.069Z,62.90
2022-07-25T23:43:31.905Z,62.90
2022-07-25T23:46:09.777Z,63.00
2022-07-25T23:48:40.869Z,63.10
2022-07-25T23:51:08.822Z,63.00
2022-07-25T23:53:37.145Z,63.10
2022-07-25T23:56:05.447Z,63.00
2022-07-25T23:58:33.322Z,63.00
